createdAt,value
2022-11-14T00:01:22.150Z,15.80
2022-11-14T00:04:10.689Z,15.23
2022-11-14T00:06:57.835Z,16.10
2022-11-14T00:09:44.706Z,15.40
2022-11-14T00:12:31.613Z,15.00
2022-11-14T00:15:18.968Z,15.17
2022-11-14T00:18:06.151Z,16.37
2022-11-14T00:20:54.863Z,15.03
2022-11-14T00:23:41.542Z,14.67
2022-11-14T00:26:28.409Z,14.67
2022-11-14T00:29:17.124Z,15.20
2022-11-14T00:32:04.029Z,13.77
2022-11-14T00:34:50.994Z,14.10
2022-11-14T00:37:39.169Z,12.67
2022-11-14T00:40:27.139Z,12.97
2022-11-14T00:43:14.256Z,14.37
2022-11-14T00:46:01.439Z,14.53
2022-11-14T00:48:48.586Z,14.37
2022-11-14T00:51:35.222Z,14.57
2022-11-14T00:54:23.298Z,13.93
2022-11-14T00:57:10.300Z,14.70
2022-11-14T00:59:57.147Z,15.67
2022-11-14T01:02:45.692Z,15.30
2022-11-14T01:05:32.487Z,14.50
2022-11-14T01:08:20.308Z,14.33
2022-11-14T01:11:13.199Z,14.47
2022-11-14T01:14:00.108Z,15.37
2022-11-14T01:16:47.260Z,14.73
2022-11-14T01:19:34.649Z,15.20
2022-11-14T01:22:21.650Z,15.63
2022-11-14T01:25:09.508Z,15.30
2022-11-14T01:27:58.042Z,15.37
2022-11-14T01:30:45.565Z,15.60
2022-11-14T01:33:32.292Z,15.17
2022-11-14T01:36:19.908Z,14.93
2022-11-14T01:39:06.884Z,15.20
2022-11-14T01:41:53.988Z,14.70
2022-11-14T01:44:47.693Z,15.83
2022-11-14T01:47:35.248Z,15.77
2022-11-14T01:50:22.349Z,16.90
2022-11-14T01:53:09.119Z,15.67
2022-11-14T01:56:00.395Z,16.47
2022-11-14T01:58:51.186Z,16.80
2022-11-14T02:01:45.850Z,16.93
2022-11-14T02:04:39.878Z,17.10
2022-11-14T02:07:29.585Z,17.43
2022-11-14T02:10:18.844Z,17.80
2022-11-14T02:13:06.012Z,17.00
2022-11-14T02:15:54.712Z,13.70
2022-11-14T02:18:43.018Z,12.20
2022-11-14T02:21:31.165Z,12.40
2022-11-14T02:24:18.388Z,11.97
2022-11-14T02:27:08.392Z,12.43
2022-11-14T02:29:55.261Z,12.73
2022-11-14T02:33:10.417Z,12.80
2022-11-14T02:35:48.773Z,13.10
2022-11-14T02:38:37.022Z,13.00
2022-11-14T02:41:24.093Z,13.17
2022-11-14T02:44:11.219Z,13.93
2022-11-14T02:46:58.084Z,14.67
2022-11-14T02:49:44.892Z,14.80
2022-11-14T02:52:31.757Z,15.47
2022-11-14T02:55:19.945Z,16.17
2022-11-14T02:58:07.626Z,16.20
2022-11-14T03:01:19.044Z,17.37
2022-11-14T03:04:01.109Z,17.90
2022-11-14T03:06:47.665Z,17.77
2022-11-14T03:09:34.394Z,18.03
2022-11-14T03:12:22.755Z,18.33
2022-11-14T03:15:12.087Z,19.33
2022-11-14T03:17:59.804Z,18.87
2022-11-14T03:20:46.640Z,19.03
2022-11-14T03:23:34.834Z,19.33
2022-11-14T03:26:21.889Z,19.50
2022-11-14T03:29:10.454Z,19.13
2022-11-14T03:31:57.413Z,18.47
2022-11-14T03:34:44.223Z,18.37
2022-11-14T03:37:32.221Z,18.63
2022-11-14T03:40:19.351Z,19.10
2022-11-14T03:43:06.229Z,18.70
2022-11-14T03:45:54.559Z,19.37
2022-11-14T03:48:41.048Z,18.00
2022-11-14T03:51:28.047Z,17.60
2022-11-14T03:54:15.205Z,17.30
2022-11-14T03:57:02.356Z,17.47
2022-11-14T03:59:49.349Z,18.07
2022-11-14T04:02:37.544Z,17.37
2022-11-14T04:05:25.116Z,16.73
2022-11-14T04:08:12.276Z,17.37
2022-11-14T04:10:59.150Z,17.70
2022-11-14T04:13:46.158Z,17.53
2022-11-14T04:16:32.787Z,17.43
2022-11-14T04:19:20.871Z,18.53
2022-11-14T04:22:07.620Z,18.27
2022-11-14T04:24:54.716Z,18.23
2022-11-14T04:27:41.621Z,17.30
2022-11-14T04:30:33.576Z,17.27
2022-11-14T04:33:22.232Z,16.93
2022-11-14T04:36:10.942Z,18.60
2022-11-14T04:38:58.187Z,17.10
2022-11-14T04:41:45.558Z,17.87
2022-11-14T04:44:32.426Z,17.53
2022-11-14T04:47:19.097Z,18.13
2022-11-14T04:50:06.799Z,18.67
2022-11-14T04:52:55.194Z,19.00
2022-11-14T04:55:41.901Z,19.40
2022-11-14T04:58:29.166Z,20.60
2022-11-14T05:01:17.974Z,20.10
2022-11-14T05:04:05.304Z,20.40
2022-11-14T05:06:53.591Z,20.57
2022-11-14T05:09:42.048Z,21.13
2022-11-14T05:12:29.418Z,20.83
2022-11-14T05:15:16.697Z,20.43
2022-11-14T05:18:03.701Z,19.23
2022-11-14T05:20:50.214Z,20.13
2022-11-14T05:23:37.047Z,19.63
2022-11-14T05:26:25.814Z,19.60
2022-11-14T05:29:12.788Z,20.27
2022-11-14T05:32:00.753Z,19.43
2022-11-14T05:34:47.864Z,19.30
2022-11-14T05:37:36.173Z,21.97
2022-11-14T05:40:22.835Z,20.70
2022-11-14T05:43:11.088Z,19.87
2022-11-14T05:46:00.987Z,19.57
2022-11-14T05:48:47.747Z,19.23
2022-11-14T05:51:34.566Z,18.97
2022-11-14T05:54:21.543Z,19.13
2022-11-14T05:57:08.552Z,19.70
2022-11-14T05:59:57.583Z,19.73
2022-11-14T06:02:46.128Z,20.47
2022-11-14T06:05:33.209Z,19.33
2022-11-14T06:08:19.974Z,19.20
2022-11-14T06:11:08.715Z,17.47
2022-11-14T06:13:55.701Z,18.33
2022-11-14T06:16:44.312Z,23.67
2022-11-14T06:19:32.288Z,23.30
2022-11-14T06:22:19.587Z,27.87
2022-11-14T06:25:07.325Z,20.20
2022-11-14T06:27:56.959Z,20.00
2022-11-14T06:30:44.437Z,19.70
2022-11-14T06:33:35.951Z,19.77
2022-11-14T06:36:22.985Z,18.93
2022-11-14T06:39:10.229Z,21.30
2022-11-14T06:41:57.186Z,20.27
2022-11-14T06:44:43.855Z,19.83
2022-11-14T06:47:30.576Z,22.37
2022-11-14T06:50:19.023Z,22.60
2022-11-14T06:53:06.131Z,20.53
2022-11-14T06:55:57.536Z,25.93
2022-11-14T06:58:46.274Z,17.33
2022-11-14T07:01:33.461Z,17.67
2022-11-14T07:04:20.586Z,16.53
2022-11-14T07:07:08.817Z,17.20
2022-11-14T07:09:56.590Z,15.57
2022-11-14T07:12:43.644Z,16.07
2022-11-14T07:15:30.594Z,16.00
2022-11-14T07:18:17.318Z,26.27
2022-11-14T07:21:06.453Z,38.93
2022-11-14T07:23:55.574Z,39.40
2022-11-14T07:26:42.270Z,23.53
2022-11-14T07:29:29.107Z,16.50
2022-11-14T07:32:16.193Z,36.93
2022-11-14T07:35:03.363Z,20.13
2022-11-14T07:37:50.974Z,17.93
2022-11-14T07:40:39.072Z,16.37
2022-11-14T07:43:26.527Z,18.67
2022-11-14T07:46:15.516Z,15.63
2022-11-14T07:49:02.592Z,16.43
2022-11-14T07:51:49.538Z,16.23
2022-11-14T07:54:36.226Z,15.70
2022-11-14T07:57:24.343Z,16.87
2022-11-14T08:00:12.915Z,16.60
2022-11-14T08:03:00.170Z,17.93
2022-11-14T08:05:47.026Z,16.77
2022-11-14T08:08:34.206Z,25.97
2022-11-14T08:11:41.713Z,76.77
2022-11-14T08:14:30.111Z,55.43
2022-11-14T08:17:17.551Z,35.03
2022-11-14T08:20:04.953Z,21.20
2022-11-14T08:22:51.831Z,16.30
2022-11-14T08:25:38.771Z,17.17
2022-11-14T08:28:26.901Z,25.90
2022-11-14T08:31:15.619Z,23.27
2022-11-14T08:34:02.505Z,26.07
2022-11-14T08:36:49.696Z,27.50
2022-11-14T08:39:37.075Z,20.13
2022-11-14T08:42:24.015Z,23.30
2022-11-14T08:45:12.581Z,18.80
2022-11-14T08:48:00.841Z,24.40
2022-11-14T08:50:48.898Z,17.67
2022-11-14T08:53:36.187Z,17.53
2022-11-14T08:56:23.126Z,20.60
2022-11-14T08:59:10.341Z,20.90
2022-11-14T09:01:57.287Z,15.60
2022-11-14T09:04:45.313Z,15.47
2022-11-14T09:07:32.539Z,15.07
2022-11-14T09:10:19.790Z,20.13
2022-11-14T09:13:07.038Z,21.57
2022-11-14T09:15:54.033Z,14.33
2022-11-14T09:18:41.208Z,14.50
2022-11-14T09:21:29.568Z,13.87
2022-11-14T09:24:16.532Z,16.20
2022-11-14T09:27:04.996Z,31.27
2022-11-14T09:29:51.977Z,19.23
2022-11-14T09:32:38.625Z,17.47
2022-11-14T09:35:25.378Z,15.43
2022-11-14T09:38:13.686Z,15.77
2022-11-14T09:41:11.626Z,15.10
2022-11-14T09:44:30.446Z,17.73
2022-11-14T09:47:21.815Z,20.17
2022-11-14T09:50:14.905Z,32.27
2022-11-14T09:53:07.499Z,38.90
2022-11-14T09:55:55.851Z,17.30
2022-11-14T09:58:43.263Z,15.03
2022-11-14T10:01:38.450Z,15.87
2022-11-14T10:04:34.178Z,17.70
2022-11-14T10:07:28.438Z,17.07
2022-11-14T10:10:27.367Z,16.40
2022-11-14T10:13:27.632Z,15.97
2022-11-14T10:16:20.686Z,15.73
2022-11-14T10:19:21.897Z,16.03
2022-11-14T10:22:21.432Z,15.33
2022-11-14T10:25:27.479Z,13.53
2022-11-14T10:28:44.881Z,15.47
2022-11-14T10:31:43.693Z,16.57
2022-11-14T10:34:35.578Z,18.50
2022-11-14T10:37:29.081Z,16.53
2022-11-14T10:40:19.758Z,18.67
2022-11-14T10:43:20.368Z,18.00
2022-11-14T10:46:13.200Z,16.67
2022-11-14T10:49:00.997Z,15.70
2022-11-14T10:51:51.423Z,15.73
2022-11-14T10:54:42.875Z,15.07
2022-11-14T10:57:30.136Z,15.90
2022-11-14T11:00:19.812Z,18.13
2022-11-14T11:03:08.317Z,15.67
2022-11-14T11:05:57.555Z,17.97
2022-11-14T11:09:02.239Z,15.87
2022-11-14T11:11:58.560Z,15.63
2022-11-14T11:14:45.650Z,15.13
2022-11-14T11:17:38.527Z,14.30
2022-11-14T11:20:34.155Z,13.03
2022-11-14T11:23:25.236Z,13.33
2022-11-14T11:26:20.323Z,13.77
2022-11-14T11:29:15.847Z,12.83
2022-11-14T11:32:03.778Z,13.57
2022-11-14T11:34:50.534Z,12.60
2022-11-14T11:37:42.726Z,12.13
2022-11-14T11:40:31.404Z,13.13
2022-11-14T11:43:43.878Z,12.73
2022-11-14T11:46:37.422Z,11.80
2022-11-14T11:49:35.340Z,11.80
2022-11-14T11:52:32.389Z,11.80
2022-11-14T11:55:25.578Z,10.73
2022-11-14T11:58:21.914Z,11.47
2022-11-14T12:01:11.641Z,10.57
2022-11-14T12:03:58.638Z,11.50
2022-11-14T12:06:52.259Z,10.97
2022-11-14T12:10:09.209Z,9.90
2022-11-14T12:13:33.617Z,10.60
2022-11-14T12:16:37.408Z,10.60
2022-11-14T12:19:52.661Z,10.50
2022-11-14T12:23:00.204Z,10.33
2022-11-14T12:26:10.239Z,9.90
2022-11-14T12:29:13.041Z,10.60
2022-11-14T12:32:06.909Z,10.90
2022-11-14T12:34:56.371Z,11.20
2022-11-14T12:37:52.662Z,10.50
2022-11-14T12:40:49.668Z,10.70
2022-11-14T12:43:38.866Z,10.77
2022-11-14T12:46:25.827Z,10.83
2022-11-14T12:49:39.953Z,10.50
2022-11-14T12:52:48.658Z,10.30
2022-11-14T12:55:57.172Z,11.20
2022-11-14T12:59:09.206Z,11.80
2022-11-14T13:02:18.037Z,12.07
2022-11-14T13:05:33.021Z,11.77
2022-11-14T13:08:43.199Z,10.50
2022-11-14T13:11:57.868Z,10.70
2022-11-14T13:15:15.394Z,9.73
2022-11-14T13:18:33.772Z,9.30
2022-11-14T13:21:45.606Z,9.30
2022-11-14T13:25:05.694Z,8.97
2022-11-14T13:28:18.871Z,8.43
2022-11-14T13:31:19.478Z,8.70
2022-11-14T13:34:33.541Z,8.33
2022-11-14T13:37:38.828Z,8.10
2022-11-14T13:40:34.467Z,7.73
2022-11-14T13:43:31.021Z,7.60
2022-11-14T13:46:28.462Z,7.73
2022-11-14T13:49:38.747Z,8.10
2022-11-14T13:52:30.448Z,7.77
2022-11-14T13:55:22.702Z,7.60
2022-11-14T13:58:21.038Z,6.80
2022-11-14T14:01:22.427Z,6.50
2022-11-14T14:04:21.595Z,5.57
2022-11-14T14:07:16.968Z,4.60
2022-11-14T14:10:11.822Z,4.53
2022-11-14T14:13:14.983Z,4.03
2022-11-14T14:16:08.582Z,4.03
2022-11-14T14:19:05.725Z,4.10
2022-11-14T14:21:59.106Z,4.80
2022-11-14T14:24:54.239Z,4.50
2022-11-14T14:27:54.110Z,5.20
2022-11-14T14:30:41.907Z,5.90
2022-11-14T14:33:30.176Z,5.90
2022-11-14T14:36:25.684Z,4.60
2022-11-14T14:39:21.055Z,5.00
2022-11-14T14:42:12.920Z,4.73
2022-11-14T14:45:01.296Z,5.20
2022-11-14T14:47:51.025Z,5.07
2022-11-14T14:50:41.617Z,4.70
2022-11-14T14:53:30.843Z,4.10
2022-11-14T14:56:20.912Z,4.33
2022-11-14T14:59:18.641Z,4.43
2022-11-14T15:02:16.203Z,4.10
2022-11-14T15:05:03.657Z,4.10
2022-11-14T15:07:52.116Z,4.60
2022-11-14T15:10:39.242Z,3.87
2022-11-14T15:13:28.612Z,4.03
2022-11-14T15:16:16.482Z,4.20
2022-11-14T15:19:06.649Z,4.03
2022-11-14T15:22:24.507Z,4.33
2022-11-14T15:25:21.316Z,4.50
2022-11-14T15:28:16.448Z,4.30
2022-11-14T15:31:05.114Z,4.20
2022-11-14T15:34:08.051Z,4.37
2022-11-14T15:37:21.093Z,3.70
2022-11-14T15:40:20.322Z,4.40
2022-11-14T15:43:39.071Z,3.93
2022-11-14T15:46:45.009Z,4.07
2022-11-14T15:49:36.357Z,4.13
2022-11-14T15:52:25.596Z,4.20
2022-11-14T15:55:16.370Z,4.03
2022-11-14T16:01:17.317Z,4.33
2022-11-14T16:04:04.898Z,4.00
2022-11-14T16:06:53.335Z,4.30
2022-11-14T16:09:40.343Z,4.50
2022-11-14T16:12:27.459Z,5.13
2022-11-14T16:15:14.349Z,4.90
2022-11-14T16:18:01.305Z,4.73
2022-11-14T16:20:48.554Z,5.20
2022-11-14T16:23:37.300Z,5.70
2022-11-14T16:26:25.942Z,5.77
2022-11-14T16:29:13.471Z,6.17
2022-11-14T16:32:00.327Z,7.00
2022-11-14T16:34:46.995Z,8.13
2022-11-14T16:37:33.972Z,7.23
2022-11-14T16:40:26.404Z,6.90
2022-11-14T16:43:14.836Z,6.77
2022-11-14T16:46:05.500Z,6.87
2022-11-14T16:48:52.993Z,8.37
2022-11-14T16:51:48.372Z,9.83
2022-11-14T16:54:36.063Z,11.70
2022-11-14T16:57:24.713Z,10.73
2022-11-14T17:00:13.660Z,8.67
2022-11-14T17:03:00.560Z,10.70
2022-11-14T17:05:49.240Z,10.73
2022-11-14T17:08:36.338Z,12.90
2022-11-14T17:11:23.435Z,8.57
2022-11-14T17:14:11.797Z,22.13
2022-11-14T17:17:04.375Z,15.13
2022-11-14T17:19:51.257Z,14.40
2022-11-14T17:22:38.464Z,14.90
2022-11-14T17:25:25.502Z,16.40
2022-11-14T17:28:12.416Z,18.50
2022-11-14T17:31:01.033Z,16.53
2022-11-14T17:33:52.499Z,16.33
2022-11-14T17:36:39.340Z,16.03
2022-11-14T17:39:26.231Z,15.47
2022-11-14T17:42:13.235Z,17.17
2022-11-14T17:45:01.087Z,15.73
2022-11-14T17:47:49.724Z,16.90
2022-11-14T17:50:40.197Z,15.43
2022-11-14T17:53:27.067Z,17.40
2022-11-14T17:56:16.286Z,16.33
2022-11-14T17:59:03.015Z,18.77
2022-11-14T18:01:50.241Z,18.33
2022-11-14T18:04:38.462Z,21.87
2022-11-14T18:07:25.724Z,22.87
2022-11-14T18:10:12.941Z,27.37
2022-11-14T18:13:03.751Z,28.03
2022-11-14T18:15:50.813Z,24.37
2022-11-14T18:18:38.809Z,28.03
2022-11-14T18:21:27.180Z,27.33
2022-11-14T18:24:15.276Z,27.93
2022-11-14T18:27:02.577Z,28.03
2022-11-14T18:29:49.624Z,27.03
2022-11-14T18:32:36.304Z,28.60
2022-11-14T18:35:26.633Z,31.77
2022-11-14T18:38:14.888Z,30.37
2022-11-14T18:41:03.728Z,27.87
2022-11-14T18:43:54.635Z,29.43
2022-11-14T18:46:41.750Z,30.30
2022-11-14T18:49:28.757Z,32.77
2022-11-14T18:52:17.515Z,28.27
2022-11-14T18:55:08.151Z,29.47
2022-11-14T18:57:55.155Z,33.73
2022-11-14T19:00:42.346Z,32.93
2022-11-14T19:03:31.765Z,37.43
2022-11-14T19:06:19.355Z,33.77
2022-11-14T19:09:11.343Z,31.13
2022-11-14T19:12:17.764Z,35.53
2022-11-14T19:15:05.239Z,29.80
2022-11-14T19:17:52.444Z,26.97
2022-11-14T19:20:40.546Z,20.00
2022-11-14T19:23:28.115Z,19.63
2022-11-14T19:26:15.275Z,27.33
2022-11-14T19:29:07.211Z,35.23
2022-11-14T19:31:54.635Z,39.03
2022-11-14T19:34:41.741Z,37.77
2022-11-14T19:37:29.327Z,38.97
2022-11-14T19:40:16.187Z,40.33
2022-11-14T19:43:04.187Z,44.73
2022-11-14T19:45:53.097Z,38.90
2022-11-14T19:48:40.570Z,34.53
2022-11-14T19:51:28.404Z,33.27
2022-11-14T19:54:16.824Z,33.13
2022-11-14T19:57:03.954Z,32.63
2022-11-14T19:59:52.322Z,30.73
2022-11-14T20:02:40.633Z,23.40
2022-11-14T20:05:28.233Z,22.57
2022-11-14T20:08:15.179Z,28.70
2022-11-14T20:11:05.013Z,26.50
2022-11-14T20:13:52.436Z,27.30
2022-11-14T20:16:39.724Z,22.40
2022-11-14T20:19:28.809Z,24.47
2022-11-14T20:22:16.081Z,14.20
2022-11-14T20:25:03.059Z,17.67
2022-11-14T20:27:50.134Z,22.50
2022-11-14T20:30:40.603Z,23.40
2022-11-14T20:33:27.932Z,29.20
2022-11-14T20:36:18.286Z,29.10
2022-11-14T20:39:05.311Z,30.20
2022-11-14T20:41:52.343Z,27.33
2022-11-14T20:44:39.509Z,23.70
2022-11-14T20:47:27.504Z,23.80
2022-11-14T20:50:16.251Z,24.93
2022-11-14T20:53:04.359Z,22.70
2022-11-14T20:55:55.071Z,30.53
2022-11-14T20:58:42.600Z,29.93
2022-11-14T21:01:29.684Z,31.90
2022-11-14T21:04:19.777Z,29.97
2022-11-14T21:07:06.637Z,27.73
2022-11-14T21:10:08.815Z,27.73
2022-11-14T21:13:09.617Z,25.07
2022-11-14T21:15:57.378Z,27.20
2022-11-14T21:18:48.181Z,27.87
2022-11-14T21:21:36.708Z,24.60
2022-11-14T21:24:23.936Z,23.23
2022-11-14T21:27:13.102Z,22.93
2022-11-14T21:29:59.861Z,20.90
2022-11-14T21:32:46.547Z,24.80
2022-11-14T21:35:33.406Z,20.97
2022-11-14T21:38:20.438Z,11.27
2022-11-14T21:41:08.249Z,16.73
2022-11-14T21:43:57.222Z,20.03
2022-11-14T21:46:46.297Z,17.23
2022-11-14T21:49:33.226Z,10.73
2022-11-14T21:52:19.730Z,10.87
2022-11-14T21:55:07.626Z,12.57
2022-11-14T21:57:56.538Z,14.57
2022-11-14T22:00:44.654Z,13.53
2022-11-14T22:03:49.028Z,15.77
2022-11-14T22:06:35.974Z,17.73
2022-11-14T22:09:24.169Z,13.97
2022-11-14T22:12:11.030Z,14.00
2022-11-14T22:14:57.918Z,14.13
2022-11-14T22:17:45.963Z,12.10
2022-11-14T22:20:32.966Z,11.50
2022-11-14T22:23:20.015Z,11.67
2022-11-14T22:26:08.039Z,9.97
2022-11-14T22:28:54.913Z,9.23
2022-11-14T22:31:41.592Z,8.63
2022-11-14T22:34:29.869Z,10.17
2022-11-14T22:37:16.632Z,12.67
2022-11-14T22:40:03.643Z,11.33
2022-11-14T22:42:50.289Z,10.17
2022-11-14T22:45:36.953Z,10.20
2022-11-14T22:48:24.024Z,9.70
2022-11-14T22:51:14.963Z,9.80
2022-11-14T22:54:01.647Z,11.67
2022-11-14T22:56:48.610Z,11.83
2022-11-14T22:59:35.365Z,12.63
2022-11-14T23:02:22.491Z,12.70
2022-11-14T23:05:09.504Z,10.17
2022-11-14T23:07:57.561Z,10.17
2022-11-14T23:10:45.002Z,9.70
2022-11-14T23:13:31.984Z,9.03
2022-11-14T23:16:20.367Z,9.37
2022-11-14T23:19:07.402Z,11.33
2022-11-14T23:21:55.407Z,10.97
2022-11-14T23:24:44.094Z,11.80
2022-11-14T23:27:33.873Z,11.60
2022-11-14T23:30:20.734Z,10.73
2022-11-14T23:33:07.381Z,11.57
2022-11-14T23:35:54.126Z,11.73
2022-11-14T23:38:40.830Z,12.17
2022-11-14T23:41:29.322Z,11.53
2022-11-14T23:44:16.093Z,10.47
2022-11-14T23:47:02.996Z,10.37
2022-11-14T23:49:50.002Z,9.30
2022-11-14T23:52:36.912Z,9.10
2022-11-14T23:55:23.480Z,9.07
2022-11-14T23:58:11.646Z,8.40
